createdAt,value
2024-02-13T00:04:43.601Z,0.50
2024-02-13T00:09:45.897Z,0.50
2024-02-13T00:14:50.069Z,0.51
2024-02-13T00:19:53.952Z,0.53
2024-02-13T00:24:56.188Z,0.42
2024-02-13T00:29:59.180Z,0.29
2024-02-13T00:35:04.288Z,0.13
2024-02-13T00:40:11.829Z,0.08
2024-02-13T00:45:14.131Z,-0.01
2024-02-13T00:50:37.017Z,-0.02
2024-02-13T00:55:39.291Z,-0.01
2024-02-13T01:00:41.461Z,-0.01
2024-02-13T01:05:44.618Z,-0.03
2024-02-13T01:10:47.284Z,-0.07
2024-02-13T01:15:49.783Z,-0.07
2024-02-13T01:20:52.150Z,-0.12
2024-02-13T01:25:54.446Z,-0.19
2024-02-13T01:30:59.804Z,-0.24
2024-02-13T01:36:05.390Z,-0.29
2024-02-13T01:41:08.339Z,-0.40
2024-02-13T01:46:12.704Z,-0.55
2024-02-13T01:58:39.936Z,-0.73
2024-02-13T02:03:43.019Z,-0.80
2024-02-13T02:08:46.919Z,-0.80
2024-02-13T02:13:49.368Z,-0.79
2024-02-13T02:19:42.514Z,-0.61
2024-02-13T02:24:44.879Z,-0.74
2024-02-13T02:29:57.660Z,-0.74
2024-02-13T02:35:00.525Z,-0.80
2024-02-13T02:40:03.125Z,-0.74
2024-02-13T02:45:07.876Z,-0.73
2024-02-13T02:50:13.443Z,-0.75
2024-02-13T02:55:19.264Z,-0.71
2024-02-13T03:00:22.613Z,-0.68
2024-02-13T03:05:41.985Z,-0.67
2024-02-13T03:10:44.511Z,-0.64
2024-02-13T03:15:47.557Z,-0.62
2024-02-13T03:20:49.803Z,-0.64
2024-02-13T03:25:52.066Z,-0.67
2024-02-13T03:31:14.231Z,-0.76
2024-02-13T03:36:21.138Z,-0.83
2024-02-13T03:41:23.390Z,-0.76
2024-02-13T03:46:25.688Z,-0.73
2024-02-13T03:51:27.912Z,-0.87
2024-02-13T03:56:30.108Z,-0.80
2024-02-13T04:01:33.116Z,-0.80
2024-02-13T04:06:35.415Z,-0.75
2024-02-13T04:11:37.857Z,-0.75
2024-02-13T04:16:42.807Z,-0.76
2024-02-13T04:21:46.156Z,-0.82
2024-02-13T04:26:48.459Z,-0.87
2024-02-13T04:31:51.228Z,-0.92
2024-02-13T04:36:53.592Z,-0.98
2024-02-13T04:41:55.934Z,-1.00
2024-02-13T04:46:58.265Z,-1.05
2024-02-13T04:52:00.636Z,-1.14
2024-02-13T04:57:02.973Z,-1.21
2024-02-13T05:02:07.262Z,-1.30
2024-02-13T05:07:21.545Z,-1.34
2024-02-13T05:12:24.347Z,-1.34
2024-02-13T05:17:28.767Z,-1.41
2024-02-13T05:22:31.060Z,-1.39
2024-02-13T05:27:33.459Z,-1.35
2024-02-13T05:32:35.819Z,-1.36
2024-02-13T05:37:39.013Z,-1.31
2024-02-13T05:42:41.527Z,-1.39
2024-02-13T05:47:43.826Z,-1.18
2024-02-13T05:52:48.763Z,-1.12
2024-02-13T05:57:52.065Z,-1.10
2024-02-13T06:02:57.412Z,-1.02
2024-02-13T06:07:59.668Z,-0.98
2024-02-13T06:13:02.119Z,-1.01
2024-02-13T06:18:06.001Z,-0.97
2024-02-13T06:23:08.470Z,-1.05
2024-02-13T06:28:10.810Z,-0.91
2024-02-13T06:33:13.830Z,-0.93
2024-02-13T06:38:16.961Z,-0.99
2024-02-13T06:43:20.009Z,-1.17
2024-02-13T06:48:22.267Z,-0.98
2024-02-13T06:53:25.115Z,-1.18
2024-02-13T06:58:27.304Z,-1.02
2024-02-13T07:03:48.202Z,-0.93
2024-02-13T07:08:50.571Z,-0.93
2024-02-13T07:13:53.158Z,-0.76
2024-02-13T07:18:55.527Z,-0.59
2024-02-13T07:23:58.248Z,-0.53
2024-02-13T07:29:00.553Z,-0.40
2024-02-13T07:34:03.212Z,-0.22
2024-02-13T07:39:06.408Z,-0.18
2024-02-13T07:44:08.938Z,-0.25
2024-02-13T07:49:12.081Z,-0.30
2024-02-13T07:54:16.177Z,-0.24
2024-02-13T07:59:18.575Z,-0.09
2024-02-13T08:04:21.114Z,0.11
2024-02-13T08:09:23.372Z,0.32
2024-02-13T08:14:25.641Z,0.54
2024-02-13T08:19:28.012Z,1.02
2024-02-13T08:24:30.576Z,1.39
2024-02-13T08:29:33.192Z,1.72
2024-02-13T08:34:35.859Z,1.95
2024-02-13T08:39:39.835Z,2.00
2024-02-13T08:44:44.385Z,2.02
2024-02-13T08:49:46.803Z,2.04
2024-02-13T08:54:49.215Z,2.03
2024-02-13T08:59:55.949Z,1.78
2024-02-13T09:04:59.216Z,1.46
2024-02-13T09:10:01.558Z,1.07
2024-02-13T09:15:12.786Z,0.97
2024-02-13T09:20:16.498Z,0.93
2024-02-13T09:25:21.277Z,0.68
2024-02-13T09:30:23.530Z,0.76
2024-02-13T09:35:26.022Z,0.76
2024-02-13T09:40:33.943Z,0.86
2024-02-13T09:45:40.679Z,0.78
2024-02-13T09:50:44.884Z,0.90
2024-02-13T09:55:48.041Z,1.02
2024-02-13T10:00:52.360Z,0.94
2024-02-13T10:05:54.846Z,0.92
2024-02-13T10:11:05.274Z,1.02
2024-02-13T10:16:22.339Z,0.99
2024-02-13T10:21:27.770Z,0.83
2024-02-13T10:26:30.589Z,0.97
2024-02-13T10:31:41.562Z,0.82
2024-02-13T10:36:46.707Z,0.72
2024-02-13T10:41:53.021Z,0.53
2024-02-13T10:46:59.370Z,0.34
2024-02-13T10:52:07.082Z,0.33
2024-02-13T10:57:09.907Z,0.40
2024-02-13T11:02:15.887Z,0.71
2024-02-13T11:07:19.714Z,0.92
2024-02-13T11:12:22.786Z,0.80
2024-02-13T11:17:32.490Z,0.83
2024-02-13T11:23:01.072Z,0.93
2024-02-13T11:28:10.277Z,1.22
2024-02-13T11:33:20.331Z,1.51
2024-02-13T11:38:26.582Z,1.39
2024-02-13T11:43:29.702Z,0.96
2024-02-13T11:48:35.295Z,0.61
2024-02-13T11:53:42.194Z,0.58
2024-02-13T11:58:44.486Z,0.20
2024-02-13T12:03:47.279Z,-0.04
2024-02-13T12:08:50.168Z,-0.09
2024-02-13T12:13:52.492Z,-0.24
2024-02-13T12:18:58.983Z,-0.19
2024-02-13T12:24:02.990Z,-0.43
2024-02-13T12:29:16.684Z,-0.78
2024-02-13T12:34:20.462Z,-0.97
2024-02-13T12:39:27.068Z,-1.33
2024-02-13T12:44:32.208Z,-1.70
2024-02-13T12:49:35.450Z,-1.84
2024-02-13T12:54:37.688Z,-2.00
2024-02-13T12:59:40.152Z,-2.01
2024-02-13T13:04:42.930Z,-1.91
2024-02-13T13:09:45.675Z,-1.82
2024-02-13T13:14:48.523Z,-1.74
2024-02-13T13:19:51.099Z,-2.01
2024-02-13T13:24:53.712Z,-2.32
2024-02-13T13:29:56.047Z,-2.65
2024-02-13T13:35:01.732Z,-2.85
2024-02-13T13:40:13.663Z,-3.05
2024-02-13T13:45:16.145Z,-3.38
2024-02-13T13:50:19.181Z,-3.42
2024-02-13T13:55:21.982Z,-3.65
2024-02-13T14:00:24.734Z,-3.93
2024-02-13T14:05:27.019Z,-3.77
2024-02-13T14:10:30.343Z,-3.87
2024-02-13T14:15:35.613Z,-3.88
2024-02-13T14:20:40.846Z,-3.86
2024-02-13T14:25:43.232Z,-3.89
2024-02-13T14:30:45.603Z,-4.03
2024-02-13T14:35:49.017Z,-4.00
2024-02-13T14:40:57.257Z,-4.07
2024-02-13T14:46:00.702Z,-4.06
2024-02-13T14:51:03.233Z,-4.07
2024-02-13T14:56:06.615Z,-4.08
2024-02-13T15:01:10.789Z,-4.09
2024-02-13T15:06:13.887Z,-4.14
2024-02-13T15:11:16.448Z,-4.18
2024-02-13T15:16:19.588Z,-4.22
2024-02-13T15:21:31.246Z,-4.20
2024-02-13T15:26:34.635Z,-4.19
2024-02-13T15:31:39.624Z,-4.18
2024-02-13T15:37:10.840Z,-4.22
2024-02-13T15:42:31.970Z,-4.44
2024-02-13T15:47:35.395Z,-4.40
2024-02-13T15:52:43.952Z,-4.32
2024-02-13T15:57:48.369Z,-4.40
2024-02-13T16:02:51.443Z,-4.48
2024-02-13T16:07:53.724Z,-4.60
2024-02-13T16:12:56.987Z,-4.72
2024-02-13T16:18:00.816Z,-4.80
2024-02-13T16:23:05.984Z,-4.87
2024-02-13T16:28:08.370Z,-4.88
2024-02-13T16:33:11.113Z,-5.10
2024-02-13T16:38:13.518Z,-4.99
2024-02-13T16:43:16.773Z,-5.04
2024-02-13T16:48:20.642Z,-5.12
2024-02-13T16:53:23.195Z,-5.13
2024-02-13T16:58:25.831Z,-5.19
2024-02-13T17:03:28.088Z,-5.11
2024-02-13T17:08:34.674Z,-5.09
2024-02-13T17:13:37.446Z,-5.11
2024-02-13T17:18:39.805Z,-5.14
2024-02-13T17:23:42.130Z,-5.13
2024-02-13T17:28:44.415Z,-5.18
2024-02-13T17:33:46.830Z,-5.26
2024-02-13T17:38:50.502Z,-5.36
2024-02-13T17:43:54.380Z,-5.38
2024-02-13T17:48:57.828Z,-5.57
2024-02-13T17:54:00.171Z,-5.65
2024-02-13T17:59:02.859Z,-5.62
2024-02-13T18:04:06.356Z,-5.57
2024-02-13T18:09:11.623Z,-5.49
2024-02-13T18:14:14.059Z,-5.56
2024-02-13T18:19:19.760Z,-5.53
2024-02-13T18:24:22.205Z,-5.59
2024-02-13T18:29:24.699Z,-5.58
2024-02-13T18:34:28.272Z,-5.58
2024-02-13T18:39:30.654Z,-5.59
2024-02-13T18:44:35.242Z,-5.72
2024-02-13T18:49:37.726Z,-5.80
2024-02-13T18:54:40.146Z,-5.71
2024-02-13T18:59:43.468Z,-5.91
2024-02-13T19:04:45.747Z,-5.88
2024-02-13T19:09:48.056Z,-5.94
2024-02-13T19:14:50.372Z,-6.05
2024-02-13T19:26:34.979Z,-6.36
2024-02-13T19:31:37.974Z,-6.56
2024-02-13T19:36:40.655Z,-6.76
2024-02-13T19:41:49.197Z,-6.76
2024-02-13T19:46:51.492Z,-6.95
2024-02-13T19:52:13.927Z,-6.79
2024-02-13T19:57:36.099Z,-6.92
2024-02-13T20:02:58.407Z,-7.05
2024-02-13T20:08:20.995Z,-7.16
2024-02-13T20:13:24.207Z,-7.09
2024-02-13T20:18:26.565Z,-7.22
2024-02-13T20:23:28.998Z,-7.32
2024-02-13T20:28:33.331Z,-7.40
2024-02-13T20:33:36.741Z,-7.47
2024-02-13T20:38:40.230Z,-7.50
2024-02-13T20:43:44.970Z,-7.51
2024-02-13T20:48:47.770Z,-7.65
2024-02-13T20:53:50.652Z,-7.72
2024-02-13T20:58:53.178Z,-7.96
2024-02-13T21:03:55.792Z,-8.07
2024-02-13T21:08:59.035Z,-8.10
2024-02-13T21:14:02.160Z,-7.95
2024-02-13T21:19:04.634Z,-8.17
2024-02-13T21:24:07.817Z,-8.08
2024-02-13T21:29:10.394Z,-8.12
2024-02-13T21:34:13.376Z,-8.22
2024-02-13T21:39:15.805Z,-8.29
2024-02-13T21:44:19.759Z,-8.29
2024-02-13T21:49:22.705Z,-8.55
2024-02-13T21:54:24.964Z,-8.41
2024-02-13T21:59:27.329Z,-8.44
2024-02-13T22:04:32.679Z,-8.47
2024-02-13T22:09:36.441Z,-8.59
2024-02-13T22:14:38.689Z,-8.61
2024-02-13T22:19:40.986Z,-8.64
2024-02-13T22:24:43.395Z,-8.78
2024-02-13T22:29:45.724Z,-8.68
2024-02-13T22:34:48.786Z,-8.74
2024-02-13T22:39:51.059Z,-8.83
2024-02-13T22:44:53.328Z,-8.85
2024-02-13T22:49:55.606Z,-8.88
2024-02-13T22:54:57.829Z,-8.93
2024-02-13T23:00:00.552Z,-9.02
2024-02-13T23:05:07.460Z,-9.00
2024-02-13T23:10:10.349Z,-9.04
2024-02-13T23:15:13.059Z,-9.06
2024-02-13T23:20:22.923Z,-9.18
2024-02-13T23:25:25.288Z,-9.17
2024-02-13T23:30:27.848Z,-9.25
2024-02-13T23:35:30.214Z,-9.31
2024-02-13T23:41:30.085Z,-9.30
2024-02-13T23:46:32.603Z,-9.35
2024-02-13T23:51:35.834Z,-9.39
2024-02-13T23:56:38.209Z,-9.43
